sensor_id;sensor_type;location;lat;lon;timestamp;pressure;altitude;pressure_sealevel;temperature;humidity
52105;BME280;38103;42.776;23.112;2023-06-14T00:02:04;93683.66;;;15.32;100.00
52105;BME280;38103;42.776;23.112;2023-06-14T00:04:29;93684.19;;;15.28;100.00
52105;BME280;38103;42.776;23.112;2023-06-14T00:06:56;93686.84;;;15.28;100.00
52105;BME280;38103;42.776;23.112;2023-06-14T00:09:22;93682.63;;;15.27;100.00
52105;BME280;38103;42.776;23.112;2023-06-14T00:11:47;93682.09;;;15.25;100.00
52105;BME280;38103;42.776;23.112;2023-06-14T00:14:13;93680.47;;;15.24;100.00
52105;BME280;38103;42.776;23.112;2023-06-14T00:16:39;93683.69;;;15.21;100.00
52105;BME280;38103;42.776;23.112;2023-06-14T00:19:08;93679.47;;;15.04;100.00
52105;BME280;38103;42.776;23.112;2023-06-14T00:21:35;93675.22;;;14.88;100.00
52105;BME280;38103;42.776;23.112;2023-06-14T00:24:01;93663.50;;;14.73;100.00
52105;BME280;38103;42.776;23.112;2023-06-14T00:26:27;93667.75;;;14.79;100.00
52105;BME280;38103;42.776;23.112;2023-06-14T00:28:54;93668.03;;;14.83;100.00
52105;BME280;38103;42.776;23.112;2023-06-14T00:31:19;93672.00;;;14.85;100.00
52105;BME280;38103;42.776;23.112;2023-06-14T00:33:46;93648.34;;;14.73;100.00
52105;BME280;38103;42.776;23.112;2023-06-14T00:36:12;93665.66;;;14.87;100.00
52105;BME280;38103;42.776;23.112;2023-06-14T00:38:37;93661.66;;;14.84;100.00
52105;BME280;38103;42.776;23.112;2023-06-14T00:41:03;93664.31;;;14.84;100.00
52105;BME280;38103;42.776;23.112;2023-06-14T00:43:28;93667.22;;;14.82;100.00
52105;BME280;38103;42.776;23.112;2023-06-14T00:45:54;93659.50;;;14.81;100.00
52105;BME280;38103;42.776;23.112;2023-06-14T00:48:20;93664.03;;;14.80;100.00
52105;BME280;38103;42.776;23.112;2023-06-14T00:50:45;93662.69;;;14.83;100.00
52105;BME280;38103;42.776;23.112;2023-06-14T00:53:17;93668.31;;;14.87;100.00
52105;BME280;38103;42.776;23.112;2023-06-14T00:55:43;93660.88;;;14.89;100.00
52105;BME280;38103;42.776;23.112;2023-06-14T00:58:09;93659.53;;;14.91;100.00
52105;BME280;38103;42.776;23.112;2023-06-14T01:00:35;93659.00;;;14.89;100.00
52105;BME280;38103;42.776;23.112;2023-06-14T01:03:01;93654.22;;;14.91;100.00
52105;BME280;38103;42.776;23.112;2023-06-14T01:05:28;93651.25;;;14.93;100.00
52105;BME280;38103;42.776;23.112;2023-06-14T01:10:53;93651.25;;;14.82;100.00
52105;BME280;38103;42.776;23.112;2023-06-14T01:13:27;93653.91;;;14.82;100.00
52105;BME280;38103;42.776;23.112;2023-06-14T01:15:54;93655.53;;;14.89;100.00
52105;BME280;38103;42.776;23.112;2023-06-14T01:18:20;93652.59;;;14.95;100.00
52105;BME280;38103;42.776;23.112;2023-06-14T01:20:47;93648.06;;;15.01;100.00
52105;BME280;38103;42.776;23.112;2023-06-14T01:23:22;93650.19;;;14.99;100.00
52105;BME280;38103;42.776;23.112;2023-06-14T01:25:49;93607.63;;;14.78;100.00
52105;BME280;38103;42.776;23.112;2023-06-14T01:28:19;93643.78;;;15.05;100.00
52105;BME280;38103;42.776;23.112;2023-06-14T01:30:48;93647.75;;;15.08;100.00
52105;BME280;38103;42.776;23.112;2023-06-14T01:33:19;93653.09;;;15.08;100.00
52105;BME280;38103;42.776;23.112;2023-06-14T01:35:47;93653.38;;;15.06;100.00
52105;BME280;38103;42.776;23.112;2023-06-14T01:38:14;93645.91;;;15.03;100.00
52105;BME280;38103;42.776;23.112;2023-06-14T01:40:42;93651.25;;;15.03;100.00
52105;BME280;38103;42.776;23.112;2023-06-14T01:43:09;93650.72;;;15.06;100.00
52105;BME280;38103;42.776;23.112;2023-06-14T01:45:36;93651.50;;;15.12;100.00
52105;BME280;38103;42.776;23.112;2023-06-14T01:48:02;93654.41;;;15.16;100.00
52105;BME280;38103;42.776;23.112;2023-06-14T01:50:29;93651.50;;;15.17;100.00
52105;BME280;38103;42.776;23.112;2023-06-14T01:52:55;93661.56;;;15.21;100.00
52105;BME280;38103;42.776;23.112;2023-06-14T01:55:20;93656.25;;;15.21;100.00
52105;BME280;38103;42.776;23.112;2023-06-14T01:57:47;93662.91;;;15.18;100.00
52105;BME280;38103;42.776;23.112;2023-06-14T02:00:13;93666.91;;;15.21;100.00
52105;BME280;38103;42.776;23.112;2023-06-14T02:02:40;93670.88;;;15.23;100.00
52105;BME280;38103;42.776;23.112;2023-06-14T02:05:06;93647.22;;;15.11;100.00
52105;BME280;38103;42.776;23.112;2023-06-14T02:07:31;93673.53;;;15.28;100.00
52105;BME280;38103;42.776;23.112;2023-06-14T02:09:57;93678.88;;;15.28;100.00
52105;BME280;38103;42.776;23.112;2023-06-14T02:12:22;93676.75;;;15.25;100.00
52105;BME280;38103;42.776;23.112;2023-06-14T02:14:48;93678.34;;;15.21;100.00
52105;BME280;38103;42.776;23.112;2023-06-14T02:17:14;93642.22;;;14.94;100.00
52105;BME280;38103;42.776;23.112;2023-06-14T02:19:40;93680.00;;;15.12;100.00
52105;BME280;38103;42.776;23.112;2023-06-14T02:22:05;93680.00;;;15.12;100.00
52105;BME280;38103;42.776;23.112;2023-06-14T02:24:31;93682.38;;;15.13;100.00
52105;BME280;38103;42.776;23.112;2023-06-14T02:26:57;93681.03;;;15.16;100.00
52105;BME280;38103;42.776;23.112;2023-06-14T02:29:22;93674.13;;;15.15;100.00
52105;BME280;38103;42.776;23.112;2023-06-14T02:31:48;93680.22;;;15.15;100.00
52105;BME280;38103;42.776;23.112;2023-06-14T02:34:14;93647.28;;;14.90;100.00
52105;BME280;38103;42.776;23.112;2023-06-14T02:36:41;93674.66;;;15.12;100.00
52105;BME280;38103;42.776;23.112;2023-06-14T02:39:08;93677.84;;;15.14;100.00
52105;BME280;38103;42.776;23.112;2023-06-14T02:41:34;93676.81;;;15.10;100.00
52105;BME280;38103;42.776;23.112;2023-06-14T02:44:00;93672.53;;;15.03;100.00
52105;BME280;38103;42.776;23.112;2023-06-14T02:46:25;93675.50;;;14.96;100.00
52105;BME280;38103;42.776;23.112;2023-06-14T02:48:51;93681.06;;;15.00;100.00
52105;BME280;38103;42.776;23.112;2023-06-14T02:51:16;93679.47;;;15.04;100.00
52105;BME280;38103;42.776;23.112;2023-06-14T02:53:41;93681.06;;;15.05;100.00
52105;BME280;38103;42.776;23.112;2023-06-14T02:56:07;93683.69;;;15.11;100.00
52105;BME280;38103;42.776;23.112;2023-06-14T02:58:32;93675.19;;;15.08;100.00
52105;BME280;38103;42.776;23.112;2023-06-14T03:00:58;93680.28;;;15.05;100.00
52105;BME280;38103;42.776;23.112;2023-06-14T03:03:27;93681.84;;;15.06;100.00
52105;BME280;38103;42.776;23.112;2023-06-14T03:05:53;93679.72;;;15.08;100.00
52105;BME280;38103;42.776;23.112;2023-06-14T03:08:20;93687.16;;;15.11;100.00
52105;BME280;38103;42.776;23.112;2023-06-14T03:10:46;93697.00;;;15.16;100.00
52105;BME280;38103;42.776;23.112;2023-06-14T03:13:12;93673.06;;;15.11;100.00
52105;BME280;38103;42.776;23.112;2023-06-14T03:15:38;93689.53;;;15.18;100.00
52105;BME280;38103;42.776;23.112;2023-06-14T03:18:07;93687.97;;;15.17;100.00
52105;BME280;38103;42.776;23.112;2023-06-14T03:20:33;93685.31;;;15.12;100.00
52105;BME280;38103;42.776;23.112;2023-06-14T03:23:02;93687.97;;;15.06;100.00
52105;BME280;38103;42.776;23.112;2023-06-14T03:25:28;93692.25;;;15.02;100.00
52105;BME280;38103;42.776;23.112;2023-06-14T03:27:55;93659.25;;;14.77;100.00
52105;BME280;38103;42.776;23.112;2023-06-14T03:30:21;93700.78;;;14.94;100.00
52105;BME280;38103;42.776;23.112;2023-06-14T03:32:46;93700.78;;;14.94;100.00
52105;BME280;38103;42.776;23.112;2023-06-14T03:35:12;93699.44;;;14.96;100.00
52105;BME280;38103;42.776;23.112;2023-06-14T03:37:43;93700.50;;;15.01;100.00
52105;BME280;38103;42.776;23.112;2023-06-14T03:40:08;93699.16;;;15.03;100.00
52105;BME280;38103;42.776;23.112;2023-06-14T03:42:34;93694.88;;;15.18;100.00
52105;BME280;38103;42.776;23.112;2023-06-14T03:44:59;93693.47;;;15.41;100.00
52105;BME280;38103;42.776;23.112;2023-06-14T03:47:25;93703.22;;;15.72;100.00
52105;BME280;38103;42.776;23.112;2023-06-14T03:49:50;93701.50;;;16.03;100.00
52105;BME280;38103;42.776;23.112;2023-06-14T03:52:15;93700.84;;;16.27;100.00
52105;BME280;38103;42.776;23.112;2023-06-14T03:54:42;93701.84;;;16.41;100.00
52105;BME280;38103;42.776;23.112;2023-06-14T03:57:09;93704.28;;;16.68;100.00
52105;BME280;38103;42.776;23.112;2023-06-14T03:59:35;93711.63;;;16.86;100.00
52105;BME280;38103;42.776;23.112;2023-06-14T04:02:01;93708.25;;;17.05;100.00
52105;BME280;38103;42.776;23.112;2023-06-14T04:04:27;93715.09;;;17.17;100.00
52105;BME280;38103;42.776;23.112;2023-06-14T04:06:57;93719.53;;;17.27;100.00
52105;BME280;38103;42.776;23.112;2023-06-14T04:09:24;93713.88;;;17.34;100.00
52105;BME280;38103;42.776;23.112;2023-06-14T04:11:51;93713.53;;;17.40;100.00
52105;BME280;38103;42.776;23.112;2023-06-14T04:14:18;93716.44;;;17.44;100.00
52105;BME280;38103;42.776;23.112;2023-06-14T04:16:44;93720.13;;;17.48;100.00
52105;BME280;38103;42.776;23.112;2023-06-14T04:19:10;93701.19;;;17.45;100.00
52105;BME280;38103;42.776;23.112;2023-06-14T04:21:35;93708.13;;;17.46;100.00
52105;BME280;38103;42.776;23.112;2023-06-14T04:24:00;93705.81;;;17.39;100.00
52105;BME280;38103;42.776;23.112;2023-06-14T04:26:26;93697.28;;;17.37;100.00
52105;BME280;38103;42.776;23.112;2023-06-14T04:28:58;93708.09;;;17.26;100.00
52105;BME280;38103;42.776;23.112;2023-06-14T04:31:28;93703.88;;;17.20;100.00
52105;BME280;38103;42.776;23.112;2023-06-14T04:33:54;93715.13;;;17.12;100.00
52105;BME280;38103;42.776;23.112;2023-06-14T04:36:19;93712.06;;;16.94;100.00
52105;BME280;38103;42.776;23.112;2023-06-14T04:38:45;93718.88;;;16.81;100.00
52105;BME280;38103;42.776;23.112;2023-06-14T04:41:11;93712.06;;;16.94;100.00
52105;BME280;38103;42.776;23.112;2023-06-14T04:43:37;93714.78;;;16.89;100.00
52105;BME280;38103;42.776;23.112;2023-06-14T04:46:06;93716.94;;;16.86;100.00
52105;BME280;38103;42.776;23.112;2023-06-14T04:48:37;93719.16;;;16.79;100.00
52105;BME280;38103;42.776;23.112;2023-06-14T04:51:03;93713.31;;;16.77;100.00
52105;BME280;38103;42.776;23.112;2023-06-14T04:53:30;93719.34;;;16.88;100.00
52105;BME280;38103;42.776;23.112;2023-06-14T04:55:56;93729.63;;;17.05;100.00
52105;BME280;38103;42.776;23.112;2023-06-14T04:58:21;93721.06;;;17.08;100.00
52105;BME280;38103;42.776;23.112;2023-06-14T05:00:47;93735.06;;;17.25;100.00
52105;BME280;38103;42.776;23.112;2023-06-14T05:03:12;93728.88;;;17.29;100.00
52105;BME280;38103;42.776;23.112;2023-06-14T05:05:41;93736.63;;;17.56;100.00
52105;BME280;38103;42.776;23.112;2023-06-14T05:08:07;93729.97;;;17.78;100.00
52105;BME280;38103;42.776;23.112;2023-06-14T05:10:32;93739.81;;;17.82;100.00
52105;BME280;38103;42.776;23.112;2023-06-14T05:13:00;93742.69;;;17.86;100.00
52105;BME280;38103;42.776;23.112;2023-06-14T05:15:25;93747.63;;;17.24;100.00
52105;BME280;38103;42.776;23.112;2023-06-14T05:17:52;93751.38;;;16.88;100.00
52105;BME280;38103;42.776;23.112;2023-06-14T05:20:21;93756.03;;;17.07;100.00
52105;BME280;38103;42.776;23.112;2023-06-14T05:22:48;93760.44;;;16.92;100.00
52105;BME280;38103;42.776;23.112;2023-06-14T05:25:15;93760.47;;;16.87;100.00
52105;BME280;38103;42.776;23.112;2023-06-14T05:27:40;93768.66;;;16.61;100.00
52105;BME280;38103;42.776;23.112;2023-06-14T05:30:07;93768.72;;;16.50;100.00
52105;BME280;38103;42.776;23.112;2023-06-14T05:32:33;93778.06;;;16.53;100.00
52105;BME280;38103;42.776;23.112;2023-06-14T05:34:59;93766.84;;;16.56;100.00
52105;BME280;38103;42.776;23.112;2023-06-14T05:37:24;93771.06;;;16.57;100.00
52105;BME280;38103;42.776;23.112;2023-06-14T05:39:50;93764.19;;;16.51;100.00
52105;BME280;38103;42.776;23.112;2023-06-14T05:42:15;93771.81;;;16.23;100.00
52105;BME280;38103;42.776;23.112;2023-06-14T05:44:41;93763.81;;;16.23;100.00
52105;BME280;38103;42.776;23.112;2023-06-14T05:47:06;93766.41;;;16.38;100.00
52105;BME280;38103;42.776;23.112;2023-06-14T05:49:31;93766.34;;;16.49;100.00
52105;BME280;38103;42.776;23.112;2023-06-14T05:51:57;93763.19;;;16.41;100.00
52105;BME280;38103;42.776;23.112;2023-06-14T05:54:22;93769.94;;;16.69;100.00
52105;BME280;38103;42.776;23.112;2023-06-14T05:56:47;93761.97;;;16.63;100.00
52105;BME280;38103;42.776;23.112;2023-06-14T05:59:13;93769.97;;;16.63;100.00
52105;BME280;38103;42.776;23.112;2023-06-14T06:01:38;93773.94;;;16.71;100.00
52105;BME280;38103;42.776;23.112;2023-06-14T06:04:05;93772.50;;;16.84;100.00
52105;BME280;38103;42.776;23.112;2023-06-14T06:06:31;93771.38;;;16.56;100.00
52105;BME280;38103;42.776;23.112;2023-06-14T06:08:57;93770.56;;;16.55;100.00
52105;BME280;38103;42.776;23.112;2023-06-14T06:11:23;93770.44;;;16.76;100.00
52105;BME280;38103;42.776;23.112;2023-06-14T06:13:48;93773.97;;;16.66;100.00
52105;BME280;38103;42.776;23.112;2023-06-14T06:16:14;93772.22;;;16.46;100.00
52105;BME280;38103;42.776;23.112;2023-06-14T06:18:40;93772.72;;;16.53;100.00
52105;BME280;38103;42.776;23.112;2023-06-14T06:21:06;93776.91;;;16.70;100.00
52105;BME280;38103;42.776;23.112;2023-06-14T06:23:31;93773.44;;;16.99;100.00
52105;BME280;38103;42.776;23.112;2023-06-14T06:25:57;93767.66;;;16.92;100.00
52105;BME280;38103;42.776;23.112;2023-06-14T06:28:22;93775.06;;;17.00;100.00
52105;BME280;38103;42.776;23.112;2023-06-14T06:30:48;93773.53;;;16.89;100.00
52105;BME280;38103;42.776;23.112;2023-06-14T06:33:13;93774.00;;;16.96;100.00
52105;BME280;38103;42.776;23.112;2023-06-14T06:35:39;93775.13;;;16.90;100.00
52105;BME280;38103;42.776;23.112;2023-06-14T06:38:04;93776.50;;;17.22;100.00
52105;BME280;38103;42.776;23.112;2023-06-14T06:40:30;93771.72;;;17.14;100.00
52105;BME280;38103;42.776;23.112;2023-06-14T06:42:55;93778.09;;;17.23;100.00
52105;BME280;38103;42.776;23.112;2023-06-14T06:45:21;93782.97;;;17.46;100.00
52105;BME280;38103;42.776;23.112;2023-06-14T06:47:48;93776.22;;;17.53;100.00
52105;BME280;38103;42.776;23.112;2023-06-14T06:50:13;93779.41;;;17.56;100.00
52105;BME280;38103;42.776;23.112;2023-06-14T06:52:39;93784.63;;;17.66;100.00
52105;BME280;38103;42.776;23.112;2023-06-14T06:55:05;93788.84;;;17.72;100.00
52105;BME280;38103;42.776;23.112;2023-06-14T06:57:30;93788.56;;;17.49;100.00
52105;BME280;38103;42.776;23.112;2023-06-14T06:59:57;93782.00;;;17.61;100.00
52105;BME280;38103;42.776;23.112;2023-06-14T07:02:22;93787.59;;;17.89;100.00
52105;BME280;38103;42.776;23.112;2023-06-14T07:04:48;93791.03;;;18.14;100.00
52105;BME280;38103;42.776;23.112;2023-06-14T07:07:13;93791.91;;;18.09;100.00
52105;BME280;38103;42.776;23.112;2023-06-14T07:09:38;93773.22;;;17.85;100.00
52105;BME280;38103;42.776;23.112;2023-06-14T07:12:04;93785.19;;;18.12;100.00
52105;BME280;38103;42.776;23.112;2023-06-14T07:14:30;93787.13;;;18.31;100.00
52105;BME280;38103;42.776;23.112;2023-06-14T07:16:55;93788.84;;;17.97;100.00
52105;BME280;38103;42.776;23.112;2023-06-14T07:19:21;93786.69;;;17.74;100.00
52105;BME280;38103;42.776;23.112;2023-06-14T07:21:46;93726.44;;;17.03;100.00
52105;BME280;38103;42.776;23.112;2023-06-14T07:24:13;93748.06;;;17.37;100.00
52105;BME280;38103;42.776;23.112;2023-06-14T07:26:39;93790.88;;;17.81;100.00
52105;BME280;38103;42.776;23.112;2023-06-14T07:29:04;93780.66;;;17.88;100.00
52105;BME280;38103;42.776;23.112;2023-06-14T07:31:30;93788.97;;;18.11;100.00
52105;BME280;38103;42.776;23.112;2023-06-14T07:33:55;93785.91;;;17.98;100.00
52105;BME280;38103;42.776;23.112;2023-06-14T07:36:21;93795.44;;;18.05;100.00
52105;BME280;38103;42.776;23.112;2023-06-14T07:38:47;93797.63;;;18.03;100.00
52105;BME280;38103;42.776;23.112;2023-06-14T07:41:12;93795.13;;;17.87;100.00
52105;BME280;38103;42.776;23.112;2023-06-14T07:43:38;93793.69;;;17.70;100.00
52105;BME280;38103;42.776;23.112;2023-06-14T07:46:04;93793.44;;;17.91;100.00
52105;BME280;38103;42.776;23.112;2023-06-14T07:48:30;93786.97;;;17.97;100.00
52105;BME280;38103;42.776;23.112;2023-06-14T07:50:55;93806.16;;;18.29;100.00
52105;BME280;38103;42.776;23.112;2023-06-14T07:53:21;93809.84;;;18.53;100.00
52105;BME280;38103;42.776;23.112;2023-06-14T07:55:46;93802.78;;;18.62;100.00
52105;BME280;38103;42.776;23.112;2023-06-14T07:58:12;93805.25;;;18.78;100.00
52105;BME280;38103;42.776;23.112;2023-06-14T08:00:38;93815.13;;;18.58;100.00
52105;BME280;38103;42.776;23.112;2023-06-14T08:03:03;93812.78;;;18.76;100.00
52105;BME280;38103;42.776;23.112;2023-06-14T08:05:29;93806.09;;;18.93;100.00
52105;BME280;38103;42.776;23.112;2023-06-14T08:07:55;93814.19;;;19.26;100.00
52105;BME280;38103;42.776;23.112;2023-06-14T08:10:21;93825.03;;;19.16;100.00
52105;BME280;38103;42.776;23.112;2023-06-14T08:12:47;93827.34;;;19.42;100.00
52105;BME280;38103;42.776;23.112;2023-06-14T08:15:13;93819.03;;;19.58;100.00
52105;BME280;38103;42.776;23.112;2023-06-14T08:17:39;93825.59;;;19.65;100.00
52105;BME280;38103;42.776;23.112;2023-06-14T08:20:04;93829.16;;;19.61;100.00
52105;BME280;38103;42.776;23.112;2023-06-14T08:22:31;93826.44;;;19.94;100.00
52105;BME280;38103;42.776;23.112;2023-06-14T08:24:59;93816.47;;;19.81;100.00
52105;BME280;38103;42.776;23.112;2023-06-14T08:27:25;93826.66;;;19.50;100.00
52105;BME280;38103;42.776;23.112;2023-06-14T08:29:50;93830.88;;;19.85;100.00
52105;BME280;38103;42.776;23.112;2023-06-14T08:32:15;93830.91;;;20.13;100.00
52105;BME280;38103;42.776;23.112;2023-06-14T08:34:41;93828.78;;;19.82;100.00
52105;BME280;38103;42.776;23.112;2023-06-14T08:37:06;93832.44;;;19.72;100.00
52105;BME280;38103;42.776;23.112;2023-06-14T08:39:32;93823.09;;;19.69;100.00
52105;BME280;38103;42.776;23.112;2023-06-14T08:42:00;93826.00;;;19.87;100.00
52105;BME280;38103;42.776;23.112;2023-06-14T08:44:26;93827.91;;;19.39;100.00
52105;BME280;38103;42.776;23.112;2023-06-14T08:46:52;93827.97;;;19.67;100.00
52105;BME280;38103;42.776;23.112;2023-06-14T08:49:21;93817.66;;;19.60;100.00
52105;BME280;38103;42.776;23.112;2023-06-14T08:51:46;93821.75;;;19.86;100.00
52105;BME280;38103;42.776;23.112;2023-06-14T08:54:17;93813.50;;;20.10;100.00
52105;BME280;38103;42.776;23.112;2023-06-14T08:56:46;93813.31;;;20.07;100.00
52105;BME280;38103;42.776;23.112;2023-06-14T08:59:13;93821.06;;;20.08;100.00
52105;BME280;38103;42.776;23.112;2023-06-14T09:01:39;93819.41;;;20.27;100.00
52105;BME280;38103;42.776;23.112;2023-06-14T09:04:05;93818.22;;;20.33;100.00
52105;BME280;38103;42.776;23.112;2023-06-14T09:06:33;93819.88;;;20.43;100.00
52105;BME280;38103;42.776;23.112;2023-06-14T09:08:59;93818.59;;;20.26;100.00
52105;BME280;38103;42.776;23.112;2023-06-14T09:11:24;93808.94;;;20.11;100.00
52105;BME280;38103;42.776;23.112;2023-06-14T09:13:51;93786.97;;;20.37;100.00
52105;BME280;38103;42.776;23.112;2023-06-14T09:16:16;93799.91;;;20.35;100.00
52105;BME280;38103;42.776;23.112;2023-06-14T09:18:43;93812.91;;;20.56;100.00
52105;BME280;38103;42.776;23.112;2023-06-14T09:21:11;93807.53;;;20.56;100.00
52105;BME280;38103;42.776;23.112;2023-06-14T09:23:38;93807.09;;;20.77;100.00
52105;BME280;38103;42.776;23.112;2023-06-14T09:26:21;93798.75;;;20.87;100.00
52105;BME280;38103;42.776;23.112;2023-06-14T09:28:49;93791.09;;;20.58;100.00
52105;BME280;38103;42.776;23.112;2023-06-14T09:31:18;93799.31;;;20.24;100.00
52105;BME280;38103;42.776;23.112;2023-06-14T09:33:45;93794.25;;;19.94;100.00
52105;BME280;38103;42.776;23.112;2023-06-14T09:36:24;93789.75;;;20.32;100.00
52105;BME280;38103;42.776;23.112;2023-06-14T09:41:40;93788.69;;;20.19;100.00
52105;BME280;38103;42.776;23.112;2023-06-14T09:44:07;93789.06;;;19.84;100.00
52105;BME280;38103;42.776;23.112;2023-06-14T09:46:34;93786.06;;;19.85;100.00
52105;BME280;38103;42.776;23.112;2023-06-14T09:49:01;93786.59;;;20.02;100.00
52105;BME280;38103;42.776;23.112;2023-06-14T09:51:27;93780.91;;;20.31;100.00
52105;BME280;38103;42.776;23.112;2023-06-14T09:53:57;93779.06;;;20.69;100.00
52105;BME280;38103;42.776;23.112;2023-06-14T09:56:28;93778.63;;;20.76;100.00
52105;BME280;38103;42.776;23.112;2023-06-14T09:58:57;93753.19;;;20.59;100.00
52105;BME280;38103;42.776;23.112;2023-06-14T10:01:29;93787.38;;;20.82;100.00
52105;BME280;38103;42.776;23.112;2023-06-14T10:04:01;93778.88;;;20.88;100.00
52105;BME280;38103;42.776;23.112;2023-06-14T10:06:28;93782.81;;;21.05;100.00
52105;BME280;38103;42.776;23.112;2023-06-14T10:08:57;93783.75;;;20.86;100.00
52105;BME280;38103;42.776;23.112;2023-06-14T10:11:28;93779.56;;;20.94;100.00
52105;BME280;38103;42.776;23.112;2023-06-14T10:13:57;93767.91;;;21.22;100.00
52105;BME280;38103;42.776;23.112;2023-06-14T10:16:28;93773.53;;;21.12;100.00
52105;BME280;38103;42.776;23.112;2023-06-14T10:19:13;93766.69;;;21.28;100.00
52105;BME280;38103;42.776;23.112;2023-06-14T10:21:58;93762.16;;;21.15;100.00
52105;BME280;38103;42.776;23.112;2023-06-14T10:24:39;93759.09;;;21.30;100.00
52105;BME280;38103;42.776;23.112;2023-06-14T10:27:06;93762.88;;;21.29;100.00
52105;BME280;38103;42.776;23.112;2023-06-14T10:32:25;93762.59;;;21.08;100.00
52105;BME280;38103;42.776;23.112;2023-06-14T10:34:58;93761.91;;;21.25;100.00
52105;BME280;38103;42.776;23.112;2023-06-14T10:37:24;93758.88;;;21.50;100.00
52105;BME280;38103;42.776;23.112;2023-06-14T10:39:50;93762.09;;;21.61;100.00
52105;BME280;38103;42.776;23.112;2023-06-14T10:42:16;93759.31;;;21.75;100.00
52105;BME280;38103;42.776;23.112;2023-06-14T10:44:45;93751.66;;;21.68;100.00
52105;BME280;38103;42.776;23.112;2023-06-14T10:47:29;93744.34;;;21.92;100.00
52105;BME280;38103;42.776;23.112;2023-06-14T10:52:42;93750.97;;;21.53;100.00
52105;BME280;38103;42.776;23.112;2023-06-14T10:55:15;93737.59;;;21.30;100.00
52105;BME280;38103;42.776;23.112;2023-06-14T11:00:12;93738.97;;;21.60;100.00
52105;BME280;38103;42.776;23.112;2023-06-14T11:02:52;93732.03;;;21.59;96.08
52105;BME280;38103;42.776;23.112;2023-06-14T11:05:24;93729.00;;;21.92;95.16
52105;BME280;38103;42.776;23.112;2023-06-14T11:10:59;93721.41;;;21.94;96.26
52105;BME280;38103;42.776;23.112;2023-06-14T11:13:26;93676.69;;;21.75;88.76
52105;BME280;38103;42.776;23.112;2023-06-14T11:15:51;93708.31;;;22.28;91.30
52105;BME280;38103;42.776;23.112;2023-06-14T11:18:22;93696.72;;;22.19;92.31
52105;BME280;38103;42.776;23.112;2023-06-14T11:20:52;93717.78;;;22.17;89.50
52105;BME280;38103;42.776;23.112;2023-06-14T11:23:18;93678.84;;;22.05;87.91
52105;BME280;38103;42.776;23.112;2023-06-14T11:25:43;93711.97;;;22.24;86.23
52105;BME280;38103;42.776;23.112;2023-06-14T11:28:14;93715.75;;;22.23;84.32
52105;BME280;38103;42.776;23.112;2023-06-14T11:30:39;93714.03;;;22.36;81.87
52105;BME280;38103;42.776;23.112;2023-06-14T11:33:09;93719.41;;;22.53;79.25
52105;BME280;38103;42.776;23.112;2023-06-14T11:35:35;93721.75;;;22.19;81.76
52105;BME280;38103;42.776;23.112;2023-06-14T11:38:01;93713.09;;;22.31;79.68
52105;BME280;38103;42.776;23.112;2023-06-14T11:40:27;93711.81;;;22.29;93.01
52105;BME280;38103;42.776;23.112;2023-06-14T11:43:00;93705.78;;;22.32;90.11
52105;BME280;38103;42.776;23.112;2023-06-14T11:45:26;93711.59;;;21.98;85.68
52105;BME280;38103;42.776;23.112;2023-06-14T11:47:54;93702.72;;;21.89;82.64
52105;BME280;38103;42.776;23.112;2023-06-14T11:50:21;93692.19;;;21.79;87.47
52105;BME280;38103;42.776;23.112;2023-06-14T11:52:55;93691.31;;;21.92;88.12
52105;BME280;38103;42.776;23.112;2023-06-14T11:55:22;93666.66;;;22.08;88.30
52105;BME280;38103;42.776;23.112;2023-06-14T11:57:47;93665.06;;;22.25;83.69
52105;BME280;38103;42.776;23.112;2023-06-14T12:00:13;93685.19;;;22.36;83.31
52105;BME280;38103;42.776;23.112;2023-06-14T12:02:41;93674.56;;;22.40;85.33
52105;BME280;38103;42.776;23.112;2023-06-14T12:05:08;93667.28;;;22.23;88.82
52105;BME280;38103;42.776;23.112;2023-06-14T12:07:38;93679.31;;;22.16;89.35
52105;BME280;38103;42.776;23.112;2023-06-14T12:10:08;93676.81;;;22.47;87.06
52105;BME280;38103;42.776;23.112;2023-06-14T12:12:39;93676.16;;;22.50;84.27
52105;BME280;38103;42.776;23.112;2023-06-14T12:15:06;93634.34;;;22.26;83.58
52105;BME280;38103;42.776;23.112;2023-06-14T12:17:36;93666.19;;;22.41;79.42
52105;BME280;38103;42.776;23.112;2023-06-14T12:20:08;93671.41;;;22.47;82.26
52105;BME280;38103;42.776;23.112;2023-06-14T12:22:36;93670.28;;;22.30;80.44
52105;BME280;38103;42.776;23.112;2023-06-14T12:25:03;93674.59;;;22.31;78.39
52105;BME280;38103;42.776;23.112;2023-06-14T12:27:29;93657.81;;;22.34;83.26
52105;BME280;38103;42.776;23.112;2023-06-14T12:30:01;93662.22;;;22.48;78.60
52105;BME280;38103;42.776;23.112;2023-06-14T12:32:28;93648.75;;;22.57;78.62
52105;BME280;38103;42.776;23.112;2023-06-14T12:34:53;93666.00;;;22.64;75.27
52105;BME280;38103;42.776;23.112;2023-06-14T12:37:18;93652.88;;;22.72;76.33
52105;BME280;38103;42.776;23.112;2023-06-14T12:39:44;93653.00;;;22.66;73.02
52105;BME280;38103;42.776;23.112;2023-06-14T12:42:09;93645.56;;;22.63;73.14
52105;BME280;38103;42.776;23.112;2023-06-14T12:44:35;93646.03;;;22.83;77.26
52105;BME280;38103;42.776;23.112;2023-06-14T12:47:05;93639.19;;;22.86;76.61
52105;BME280;38103;42.776;23.112;2023-06-14T12:49:31;93631.44;;;22.84;78.61
52105;BME280;38103;42.776;23.112;2023-06-14T12:51:56;93634.31;;;22.79;72.86
52105;BME280;38103;42.776;23.112;2023-06-14T12:54:22;93639.38;;;22.63;74.37
52105;BME280;38103;42.776;23.112;2023-06-14T12:56:50;93636.03;;;22.66;80.77